Roxbury, Massachusetts
Current Conditions -  °F | °C
As of 3:23 PM on Thursday 23 Oct 2014 (Local Time) from KBOS Reporting Station
Light Rain Light Rain  
Wind Chill: 12°   Ceiling: 1000
Heat Index: 12°   Visibility: 6mi
Dew Point: 11°   Wind: 31mph
Humidity: 94%   Direction: 20°NNE
Pressure: 29.59"   Gusts: 38mph
Location:  42.3237°N, 71.0855°W
Report Text: KBOS 231923Z 02027G33KT 6SM -RA BR BKN010 OVC016 12/11 A2959 RMK AO2 PK WND 01038/1858 P0000
Loading
Personal Weather Stations






























Interactive Weather Map
Tropical Storm Tracking
New forecast layout! Learn more

10-Day Weather Forecast

Advertisements
Track Severe Weather on mobile